sensor_id;sensor_type;location;lat;lon;timestamp;pressure;altitude;pressure_sealevel;temperature;humidity
75938;BME280;64615;32.062;34.834;2023-11-21T00:00:01;100986.84;;;23.80;47.85
75938;BME280;64615;32.062;34.834;2023-11-21T00:02:27;100974.31;;;23.79;48.10
75938;BME280;64615;32.062;34.834;2023-11-21T00:04:55;100982.47;;;23.79;47.95
75938;BME280;64615;32.062;34.834;2023-11-21T00:07:21;100976.22;;;23.79;48.13
75938;BME280;64615;32.062;34.834;2023-11-21T00:09:46;100982.72;;;23.78;48.05
75938;BME280;64615;32.062;34.834;2023-11-21T00:12:12;100975.63;;;23.77;48.13
75938;BME280;64615;32.062;34.834;2023-11-21T00:14:39;100981.06;;;23.77;48.09
75938;BME280;64615;32.062;34.834;2023-11-21T00:17:05;100976.47;;;23.77;47.93
75938;BME280;64615;32.062;34.834;2023-11-21T00:19:31;100977.53;;;23.76;48.10
75938;BME280;64615;32.062;34.834;2023-11-21T00:21:57;100972.09;;;23.76;47.84
75938;BME280;64615;32.062;34.834;2023-11-21T00:24:24;100972.91;;;23.77;48.06
75938;BME280;64615;32.062;34.834;2023-11-21T00:26:50;100975.91;;;23.75;48.25
75938;BME280;64615;32.062;34.834;2023-11-21T00:29:16;100975.91;;;23.75;48.19
75938;BME280;64615;32.062;34.834;2023-11-21T00:31:43;100977.81;;;23.75;47.86
75938;BME280;64615;32.062;34.834;2023-11-21T00:34:10;100968.00;;;23.74;48.06
75938;BME280;64615;32.062;34.834;2023-11-21T00:36:36;100977.81;;;23.75;48.17
75938;BME280;64615;32.062;34.834;2023-11-21T00:39:02;100975.91;;;23.75;47.77
75938;BME280;64615;32.062;34.834;2023-11-21T00:41:28;100983.25;;;23.75;48.01
75938;BME280;64615;32.062;34.834;2023-11-21T00:43:54;100979.47;;;23.76;48.12
75938;BME280;64615;32.062;34.834;2023-11-21T00:46:20;100978.06;;;23.73;47.92
75938;BME280;64615;32.062;34.834;2023-11-21T00:48:46;100978.88;;;23.74;48.03
75938;BME280;64615;32.062;34.834;2023-11-21T00:51:12;100986.22;;;23.73;48.07
75938;BME280;64615;32.062;34.834;2023-11-21T00:53:38;100985.97;;;23.75;47.80
75938;BME280;64615;32.062;34.834;2023-11-21T00:56:05;100986.22;;;23.73;47.93
75938;BME280;64615;32.062;34.834;2023-11-21T00:58:30;100987.88;;;23.74;47.67
75938;BME280;64615;32.062;34.834;2023-11-21T01:00:56;100984.06;;;23.75;48.09
75938;BME280;64615;32.062;34.834;2023-11-21T01:03:22;100990.59;;;23.74;47.72
75938;BME280;64615;32.062;34.834;2023-11-21T01:05:47;100982.44;;;23.74;47.74
75938;BME280;64615;32.062;34.834;2023-11-21T01:08:15;100983.25;;;23.75;48.05
75938;BME280;64615;32.062;34.834;2023-11-21T01:10:41;100983.50;;;23.73;48.08
75938;BME280;64615;32.062;34.834;2023-11-21T01:13:06;100987.88;;;23.74;47.74
75938;BME280;64615;32.062;34.834;2023-11-21T01:15:36;100983.25;;;23.75;48.03
75938;BME280;64615;32.062;34.834;2023-11-21T01:18:01;100981.59;;;23.74;48.04
75938;BME280;64615;32.062;34.834;2023-11-21T01:20:28;100990.59;;;23.74;47.80
75938;BME280;64615;32.062;34.834;2023-11-21T01:22:54;100985.16;;;23.74;47.92
75938;BME280;64615;32.062;34.834;2023-11-21T01:25:20;100981.59;;;23.74;47.66
75938;BME280;64615;32.062;34.834;2023-11-21T01:27:46;100987.88;;;23.74;47.82
75938;BME280;64615;32.062;34.834;2023-11-21T01:30:12;100982.44;;;23.74;47.74
75938;BME280;64615;32.062;34.834;2023-11-21T01:32:38;100991.66;;;23.73;47.77
75938;BME280;64615;32.062;34.834;2023-11-21T01:35:05;100988.94;;;23.73;47.64
75938;BME280;64615;32.062;34.834;2023-11-21T01:37:32;100985.41;;;23.73;47.63
75938;BME280;64615;32.062;34.834;2023-11-21T01:39:58;100985.41;;;23.73;47.79
75938;BME280;64615;32.062;34.834;2023-11-21T01:42:24;100995.72;;;23.71;48.18
75938;BME280;64615;32.062;34.834;2023-11-21T01:44:50;100990.28;;;23.71;47.80
75938;BME280;64615;32.062;34.834;2023-11-21T01:47:16;100995.44;;;23.72;47.94
75938;BME280;64615;32.062;34.834;2023-11-21T01:49:45;100998.44;;;23.71;48.02
75938;BME280;64615;32.062;34.834;2023-11-21T01:52:12;101008.50;;;23.70;48.01
75938;BME280;64615;32.062;34.834;2023-11-21T01:54:38;101001.97;;;23.71;47.83
75938;BME280;64615;32.062;34.834;2023-11-21T01:57:06;101005.78;;;23.70;47.67
75938;BME280;64615;32.062;34.834;2023-11-21T01:59:37;100995.97;;;23.69;47.86
75938;BME280;64615;32.062;34.834;2023-11-21T02:02:06;101000.34;;;23.70;48.04
75938;BME280;64615;32.062;34.834;2023-11-21T02:04:33;101002.47;;;23.68;48.00
75938;BME280;64615;32.062;34.834;2023-11-21T02:06:59;101007.94;;;23.68;47.90
75938;BME280;64615;32.062;34.834;2023-11-21T02:09:28;101006.03;;;23.69;47.71
75938;BME280;64615;32.062;34.834;2023-11-21T02:11:58;101007.94;;;23.68;48.07
75938;BME280;64615;32.062;34.834;2023-11-21T02:14:27;101010.09;;;23.71;47.87
75938;BME280;64615;32.062;34.834;2023-11-21T02:16:54;101013.94;;;23.70;47.39
75938;BME280;64615;32.062;34.834;2023-11-21T02:19:22;101015.81;;;23.70;47.62
75938;BME280;64615;32.062;34.834;2023-11-21T02:21:56;101027.25;;;23.72;47.58
75938;BME280;64615;32.062;34.834;2023-11-21T02:24:24;101012.84;;;23.71;47.67
75938;BME280;64615;32.062;34.834;2023-11-21T02:26:51;101015.81;;;23.70;47.57
75938;BME280;64615;32.062;34.834;2023-11-21T02:29:20;101021.25;;;23.70;47.60
75938;BME280;64615;32.062;34.834;2023-11-21T02:31:55;101023.16;;;23.69;47.47
75938;BME280;64615;32.062;34.834;2023-11-21T02:34:22;101029.13;;;23.71;47.54
75938;BME280;64615;32.062;34.834;2023-11-21T02:36:50;101032.97;;;23.70;47.81
75938;BME280;64615;32.062;34.834;2023-11-21T02:39:17;101035.69;;;23.70;47.81
75938;BME280;64615;32.062;34.834;2023-11-21T02:41:43;101030.25;;;23.70;47.87
75938;BME280;64615;32.062;34.834;2023-11-21T02:44:09;101029.41;;;23.70;47.86
75938;BME280;64615;32.062;34.834;2023-11-21T02:46:36;101030.50;;;23.69;47.87
75938;BME280;64615;32.062;34.834;2023-11-21T02:49:02;101040.28;;;23.70;47.83
75938;BME280;64615;32.062;34.834;2023-11-21T02:51:28;101024.22;;;23.68;47.84
75938;BME280;64615;32.062;34.834;2023-11-21T02:53:54;101045.97;;;23.68;48.03
75938;BME280;64615;32.062;34.834;2023-11-21T02:56:24;101045.16;;;23.68;47.78
75938;BME280;64615;32.062;34.834;2023-11-21T02:58:51;101046.81;;;23.69;47.91
75938;BME280;64615;32.062;34.834;2023-11-21T03:01:16;101048.94;;;23.67;47.85
75938;BME280;64615;32.062;34.834;2023-11-21T03:03:42;101057.91;;;23.67;47.69
75938;BME280;64615;32.062;34.834;2023-11-21T03:06:08;101057.91;;;23.67;47.63
75938;BME280;64615;32.062;34.834;2023-11-21T03:08:34;101062.53;;;23.67;47.72
75938;BME280;64615;32.062;34.834;2023-11-21T03:11:01;101064.44;;;23.66;47.65
75938;BME280;64615;32.062;34.834;2023-11-21T03:13:29;101064.44;;;23.66;48.01
75938;BME280;64615;32.062;34.834;2023-11-21T03:15:54;101062.53;;;23.67;47.92
75938;BME280;64615;32.062;34.834;2023-11-21T03:18:21;101066.34;;;23.66;47.76
75938;BME280;64615;32.062;34.834;2023-11-21T03:20:52;101082.13;;;23.69;47.95
75938;BME280;64615;32.062;34.834;2023-11-21T03:23:18;101083.22;;;23.68;47.73
75938;BME280;64615;32.062;34.834;2023-11-21T03:25:44;101089.72;;;23.67;47.70
75938;BME280;64615;32.062;34.834;2023-11-21T03:28:09;101093.25;;;23.67;47.92
75938;BME280;64615;32.062;34.834;2023-11-21T03:30:35;101101.41;;;23.67;47.80
75938;BME280;64615;32.062;34.834;2023-11-21T03:33:01;101110.38;;;23.68;48.04
75938;BME280;64615;32.062;34.834;2023-11-21T03:35:26;101115.56;;;23.69;47.82
75938;BME280;64615;32.062;34.834;2023-11-21T03:37:52;101131.63;;;23.71;48.17
75938;BME280;64615;32.062;34.834;2023-11-21T03:40:17;101132.72;;;23.70;47.89
75938;BME280;64615;32.062;34.834;2023-11-21T03:42:43;101131.06;;;23.69;47.90
75938;BME280;64615;32.062;34.834;2023-11-21T03:45:09;101133.19;;;23.67;48.08
75938;BME280;64615;32.062;34.834;2023-11-21T03:47:35;101137.03;;;23.66;48.03
75938;BME280;64615;32.062;34.834;2023-11-21T03:50:00;101145.19;;;23.66;48.16
75938;BME280;64615;32.062;34.834;2023-11-21T03:52:26;101144.34;;;23.65;48.07
75938;BME280;64615;32.062;34.834;2023-11-21T03:54:53;101135.63;;;23.63;48.19
75938;BME280;64615;32.062;34.834;2023-11-21T03:57:20;101151.34;;;23.61;48.40
75938;BME280;64615;32.062;34.834;2023-11-21T03:59:46;101155.72;;;23.62;48.49
75938;BME280;64615;32.062;34.834;2023-11-21T04:02:12;101165.53;;;23.63;48.15
75938;BME280;64615;32.062;34.834;2023-11-21T04:04:38;101170.13;;;23.62;48.56
75938;BME280;64615;32.062;34.834;2023-11-21T04:07:05;101174.75;;;23.62;48.54
75938;BME280;64615;32.062;34.834;2023-11-21T04:09:30;101180.19;;;23.62;48.23
75938;BME280;64615;32.062;34.834;2023-11-21T04:11:56;101180.41;;;23.60;48.16
75938;BME280;64615;32.062;34.834;2023-11-21T04:14:22;101189.41;;;23.61;48.39
75938;BME280;64615;32.062;34.834;2023-11-21T04:16:48;101192.41;;;23.59;48.50
75938;BME280;64615;32.062;34.834;2023-11-21T04:19:14;101189.69;;;23.59;48.20
75938;BME280;64615;32.062;34.834;2023-11-21T04:21:41;101189.09;;;23.57;48.32
75938;BME280;64615;32.062;34.834;2023-11-21T04:24:07;101202.44;;;23.59;48.43
75938;BME280;64615;32.062;34.834;2023-11-21T04:26:32;101202.44;;;23.59;48.32
75938;BME280;64615;32.062;34.834;2023-11-21T04:28:58;101197.00;;;23.59;48.49
75938;BME280;64615;32.062;34.834;2023-11-21T04:31:24;101201.38;;;23.60;48.49
75938;BME280;64615;32.062;34.834;2023-11-21T04:33:49;101200.28;;;23.61;48.39
75938;BME280;64615;32.062;34.834;2023-11-21T04:36:15;101208.19;;;23.62;48.44
75938;BME280;64615;32.062;34.834;2023-11-21T04:38:41;101206.03;;;23.64;48.31
75938;BME280;64615;32.062;34.834;2023-11-21T04:41:07;101213.91;;;23.66;48.35
75938;BME280;64615;32.062;34.834;2023-11-21T04:43:33;101219.34;;;23.66;48.19
75938;BME280;64615;32.062;34.834;2023-11-21T04:45:58;101225.91;;;23.65;48.16
75938;BME280;64615;32.062;34.834;2023-11-21T04:48:24;101223.66;;;23.62;48.70
75938;BME280;64615;32.062;34.834;2023-11-21T04:50:50;101231.81;;;23.62;48.50
75938;BME280;64615;32.062;34.834;2023-11-21T04:53:17;101237.50;;;23.60;48.36
75938;BME280;64615;32.062;34.834;2023-11-21T04:55:42;101244.84;;;23.60;48.76
75938;BME280;64615;32.062;34.834;2023-11-21T04:58:09;101250.84;;;23.62;48.46
75938;BME280;64615;32.062;34.834;2023-11-21T05:00:35;101255.22;;;23.63;48.55
75938;BME280;64615;32.062;34.834;2023-11-21T05:03:04;101258.16;;;23.61;48.18
75938;BME280;64615;32.062;34.834;2023-11-21T05:05:30;101266.09;;;23.63;48.34
75938;BME280;64615;32.062;34.834;2023-11-21T05:07:56;101267.72;;;23.64;48.40
75938;BME280;64615;32.062;34.834;2023-11-21T05:10:21;101272.09;;;23.65;48.19
75938;BME280;64615;32.062;34.834;2023-11-21T05:12:48;101277.25;;;23.67;48.35
75938;BME280;64615;32.062;34.834;2023-11-21T05:15:16;101271.84;;;23.67;48.05
75938;BME280;64615;32.062;34.834;2023-11-21T05:17:45;101276.50;;;23.71;48.14
75938;BME280;64615;32.062;34.834;2023-11-21T05:20:11;101289.63;;;23.74;48.41
75938;BME280;64615;32.062;34.834;2023-11-21T05:22:38;101280.94;;;23.77;48.20
75938;BME280;64615;32.062;34.834;2023-11-21T05:25:05;101271.78;;;23.83;47.74
75938;BME280;64615;32.062;34.834;2023-11-21T05:27:31;101276.22;;;23.89;47.74
75938;BME280;64615;32.062;34.834;2023-11-21T05:29:56;101289.03;;;23.94;47.75
75938;BME280;64615;32.062;34.834;2023-11-21T05:32:24;101286.38;;;23.99;47.50
75938;BME280;64615;32.062;34.834;2023-11-21T05:34:49;101299.78;;;24.05;47.43
75938;BME280;64615;32.062;34.834;2023-11-21T05:37:15;101296.56;;;24.08;47.74
75938;BME280;64615;32.062;34.834;2023-11-21T05:39:40;101298.19;;;24.10;47.93
75938;BME280;64615;32.062;34.834;2023-11-21T05:42:06;101297.72;;;24.13;47.82
75938;BME280;64615;32.062;34.834;2023-11-21T05:44:34;101304.03;;;24.18;47.38
75938;BME280;64615;32.062;34.834;2023-11-21T05:47:00;101306.06;;;24.28;47.02
75938;BME280;64615;32.062;34.834;2023-11-21T05:49:25;101315.13;;;24.33;46.96
75938;BME280;64615;32.062;34.834;2023-11-21T05:51:53;101315.91;;;24.34;46.96
75938;BME280;64615;32.062;34.834;2023-11-21T05:54:19;101311.03;;;24.36;47.00
75938;BME280;64615;32.062;34.834;2023-11-21T05:56:45;101314.34;;;24.38;46.88
75938;BME280;64615;32.062;34.834;2023-11-21T05:59:12;101323.63;;;24.42;47.01
75938;BME280;64615;32.062;34.834;2023-11-21T06:01:38;101318.78;;;24.44;47.13
75938;BME280;64615;32.062;34.834;2023-11-21T06:04:05;101313.38;;;24.49;46.68
75938;BME280;64615;32.062;34.834;2023-11-21T06:06:30;101325.88;;;24.50;47.00
75938;BME280;64615;32.062;34.834;2023-11-21T06:08:57;101317.47;;;24.52;46.82
75938;BME280;64615;32.062;34.834;2023-11-21T06:11:22;101322.09;;;24.51;46.81
75938;BME280;64615;32.062;34.834;2023-11-21T06:13:50;101325.06;;;24.49;46.81
75938;BME280;64615;32.062;34.834;2023-11-21T06:16:15;101333.22;;;24.49;46.87
75938;BME280;64615;32.062;34.834;2023-11-21T06:18:45;101334.38;;;24.54;47.19
75938;BME280;64615;32.062;34.834;2023-11-21T06:21:11;101335.22;;;24.54;46.98
75938;BME280;64615;32.062;34.834;2023-11-21T06:23:36;101342.59;;;24.59;46.69
75938;BME280;64615;32.062;34.834;2023-11-21T06:26:02;101339.59;;;24.60;46.36
75938;BME280;64615;32.062;34.834;2023-11-21T06:28:29;101339.34;;;24.62;46.70
75938;BME280;64615;32.062;34.834;2023-11-21T06:30:56;101342.31;;;24.60;46.86
75938;BME280;64615;32.062;34.834;2023-11-21T06:33:23;101340.41;;;24.61;46.71
75938;BME280;64615;32.062;34.834;2023-11-21T06:35:49;101348.34;;;24.62;46.71
75938;BME280;64615;32.062;34.834;2023-11-21T06:38:15;101353.25;;;24.65;46.53
75938;BME280;64615;32.062;34.834;2023-11-21T06:40:40;101351.88;;;24.63;46.49
75938;BME280;64615;32.062;34.834;2023-11-21T06:43:06;101356.25;;;24.64;46.96
75938;BME280;64615;32.062;34.834;2023-11-21T06:45:33;101359.47;;;24.61;46.39
75938;BME280;64615;32.062;34.834;2023-11-21T06:48:00;101356.25;;;24.64;46.44
75938;BME280;64615;32.062;34.834;2023-11-21T06:50:25;101361.38;;;24.60;46.53
75938;BME280;64615;32.062;34.834;2023-11-21T06:52:51;101360.00;;;24.58;46.97
75938;BME280;64615;32.062;34.834;2023-11-21T06:55:17;101366.75;;;24.55;46.99
75938;BME280;64615;32.062;34.834;2023-11-21T06:57:43;101363.78;;;24.57;46.67
75938;BME280;64615;32.062;34.834;2023-11-21T07:00:10;101362.38;;;24.49;46.93
75938;BME280;64615;32.062;34.834;2023-11-21T07:02:37;101358.00;;;24.48;47.11
75938;BME280;64615;32.062;34.834;2023-11-21T07:05:03;101371.31;;;24.49;47.35
75938;BME280;64615;32.062;34.834;2023-11-21T07:07:29;101366.41;;;24.46;47.03
75938;BME280;64615;32.062;34.834;2023-11-21T07:09:55;101375.41;;;24.47;47.36
75938;BME280;64615;32.062;34.834;2023-11-21T07:12:20;101370.47;;;24.44;47.72
75938;BME280;64615;32.062;34.834;2023-11-21T07:14:48;101376.16;;;24.42;47.21
75938;BME280;64615;32.062;34.834;2023-11-21T07:17:14;101383.50;;;24.42;47.34
75938;BME280;64615;32.062;34.834;2023-11-21T07:19:40;101374.75;;;24.40;47.48
75938;BME280;64615;32.062;34.834;2023-11-21T07:22:06;101377.75;;;24.38;47.25
75938;BME280;64615;32.062;34.834;2023-11-21T07:24:34;101378.00;;;24.37;47.58
75938;BME280;64615;32.062;34.834;2023-11-21T07:26:59;101379.91;;;24.36;47.36
75938;BME280;64615;32.062;34.834;2023-11-21T07:29:26;101381.22;;;24.34;47.50
75938;BME280;64615;32.062;34.834;2023-11-21T07:31:54;101379.59;;;24.33;47.58
75938;BME280;64615;32.062;34.834;2023-11-21T07:34:20;101375.22;;;24.32;47.68
75938;BME280;64615;32.062;34.834;2023-11-21T07:36:46;101369.78;;;24.32;47.77
75938;BME280;64615;32.062;34.834;2023-11-21T07:39:12;101377.94;;;24.32;47.34
75938;BME280;64615;32.062;34.834;2023-11-21T07:41:38;101379.00;;;24.31;47.99
75938;BME280;64615;32.062;34.834;2023-11-21T07:44:10;101377.38;;;24.30;47.85
75938;BME280;64615;32.062;34.834;2023-11-21T07:46:36;101376.53;;;24.29;47.62
75938;BME280;64615;32.062;34.834;2023-11-21T07:49:01;101375.72;;;24.29;47.64
75938;BME280;64615;32.062;34.834;2023-11-21T07:51:27;101373.81;;;24.29;47.52
75938;BME280;64615;32.062;34.834;2023-11-21T07:53:54;101374.09;;;24.28;47.55
75938;BME280;64615;32.062;34.834;2023-11-21T07:56:19;101381.97;;;24.29;47.92
75938;BME280;64615;32.062;34.834;2023-11-21T07:58:45;101374.66;;;24.30;47.39
75938;BME280;64615;32.062;34.834;2023-11-21T08:01:11;101369.19;;;24.30;47.52
75938;BME280;64615;32.062;34.834;2023-11-21T08:03:37;101371.94;;;24.30;47.55
75938;BME280;64615;32.062;34.834;2023-11-21T08:06:02;101366.75;;;24.28;47.51
75938;BME280;64615;32.062;34.834;2023-11-21T08:08:31;101368.38;;;24.29;47.81
75938;BME280;64615;32.062;34.834;2023-11-21T08:10:57;101355.28;;;24.26;47.95
75938;BME280;64615;32.062;34.834;2023-11-21T08:13:23;101360.50;;;24.28;48.14
75938;BME280;64615;32.062;34.834;2023-11-21T08:15:49;101348.78;;;24.27;47.56
75938;BME280;64615;32.062;34.834;2023-11-21T08:18:15;101357.78;;;24.28;47.79
75938;BME280;64615;32.062;34.834;2023-11-21T08:20:43;101351.50;;;24.27;47.61
75938;BME280;64615;32.062;34.834;2023-11-21T08:23:08;101350.69;;;24.27;48.10
75938;BME280;64615;32.062;34.834;2023-11-21T08:25:34;101341.44;;;24.28;48.00
75938;BME280;64615;32.062;34.834;2023-11-21T08:28:00;101347.97;;;24.27;47.84
75938;BME280;64615;32.062;34.834;2023-11-21T08:30:26;101337.06;;;24.27;47.99
75938;BME280;64615;32.062;34.834;2023-11-21T08:32:55;101335.19;;;24.27;47.79
75938;BME280;64615;32.062;34.834;2023-11-21T08:35:23;101338.72;;;24.28;48.13
75938;BME280;64615;32.062;34.834;2023-11-21T08:37:51;101340.63;;;24.27;48.05
75938;BME280;64615;32.062;34.834;2023-11-21T08:40:18;101330.56;;;24.28;47.99
75938;BME280;64615;32.062;34.834;2023-11-21T08:42:44;101328.66;;;24.28;47.82
75938;BME280;64615;32.062;34.834;2023-11-21T08:45:11;101333.28;;;24.28;48.15
75938;BME280;64615;32.062;34.834;2023-11-21T08:47:38;101321.28;;;24.29;47.95
75938;BME280;64615;32.062;34.834;2023-11-21T08:50:06;101313.41;;;24.27;47.81
75938;BME280;64615;32.062;34.834;2023-11-21T08:52:33;101319.91;;;24.26;48.15
75938;BME280;64615;32.062;34.834;2023-11-21T08:54:59;101329.72;;;24.27;47.86
75938;BME280;64615;32.062;34.834;2023-11-21T08:57:28;101318.84;;;24.27;48.21
75938;BME280;64615;32.062;34.834;2023-11-21T08:59:54;101316.63;;;24.24;47.88
75938;BME280;64615;32.062;34.834;2023-11-21T09:02:23;101321.81;;;24.26;48.34
75938;BME280;64615;32.062;34.834;2023-11-21T09:04:49;101315.56;;;24.25;48.29
75938;BME280;64615;32.062;34.834;2023-11-21T09:07:16;101313.91;;;24.24;48.08
75938;BME280;64615;32.062;34.834;2023-11-21T09:09:41;101309.28;;;24.25;48.48
75938;BME280;64615;32.062;34.834;2023-11-21T09:12:07;101307.63;;;24.24;48.17
75938;BME280;64615;32.062;34.834;2023-11-21T09:14:33;101309.56;;;24.23;48.19
75938;BME280;64615;32.062;34.834;2023-11-21T09:16:59;101306.84;;;24.23;48.21
75938;BME280;64615;32.062;34.834;2023-11-21T09:19:24;101311.47;;;24.23;47.98
75938;BME280;64615;32.062;34.834;2023-11-21T09:21:50;101307.09;;;24.22;48.10
75938;BME280;64615;32.062;34.834;2023-11-21T09:24:16;101310.63;;;24.22;48.44
75938;BME280;64615;32.062;34.834;2023-11-21T09:26:41;101304.63;;;24.20;48.22
75938;BME280;64615;32.062;34.834;2023-11-21T09:29:07;101301.06;;;24.20;48.21
75938;BME280;64615;32.062;34.834;2023-11-21T09:31:33;101296.44;;;24.20;48.03
75938;BME280;64615;32.062;34.834;2023-11-21T09:33:59;101299.16;;;24.20;48.01
75938;BME280;64615;32.062;34.834;2023-11-21T09:36:24;101298.09;;;24.21;48.20
75938;BME280;64615;32.062;34.834;2023-11-21T09:38:53;101294.81;;;24.19;48.14
75938;BME280;64615;32.062;34.834;2023-11-21T09:41:59;101290.44;;;24.18;48.14
75938;BME280;64615;32.062;34.834;2023-11-21T09:44:45;101289.34;;;24.19;48.31
75938;BME280;64615;32.062;34.834;2023-11-21T09:47:15;101288.81;;;24.17;48.49
75938;BME280;64615;32.062;34.834;2023-11-21T09:49:47;101284.41;;;24.16;48.07
75938;BME280;64615;32.062;34.834;2023-11-21T09:52:22;101289.03;;;24.16;48.07
75938;BME280;64615;32.062;34.834;2023-11-21T09:54:50;101291.75;;;24.16;48.28
75938;BME280;64615;32.062;34.834;2023-11-21T09:57:17;101290.09;;;24.15;48.22
75938;BME280;64615;32.062;34.834;2023-11-21T09:59:45;101284.66;;;24.15;48.16
75938;BME280;64615;32.062;34.834;2023-11-21T10:02:12;101281.94;;;24.15;48.04
75938;BME280;64615;32.062;34.834;2023-11-21T10:04:39;101281.13;;;24.14;48.29
75938;BME280;64615;32.062;34.834;2023-11-21T10:07:05;101275.66;;;24.14;48.42
75938;BME280;64615;32.062;34.834;2023-11-21T10:09:36;101274.84;;;24.14;48.41
75938;BME280;64615;32.062;34.834;2023-11-21T10:12:06;101273.22;;;24.13;47.98
75938;BME280;64615;32.062;34.834;2023-11-21T10:14:35;101263.16;;;24.13;48.17
75938;BME280;64615;32.062;34.834;2023-11-21T10:17:02;101255.25;;;24.12;47.94
75938;BME280;64615;32.062;34.834;2023-11-21T10:19:29;101259.63;;;24.13;48.26
75938;BME280;64615;32.062;34.834;2023-11-21T10:21:55;101256.91;;;24.13;48.05
75938;BME280;64615;32.062;34.834;2023-11-21T10:24:23;101250.66;;;24.12;47.94
75938;BME280;64615;32.062;34.834;2023-11-21T10:26:48;101254.19;;;24.13;48.26
75938;BME280;64615;32.062;34.834;2023-11-21T10:29:16;101246.81;;;24.13;48.06
75938;BME280;64615;32.062;34.834;2023-11-21T10:31:49;101236.75;;;24.14;48.12
75938;BME280;64615;32.062;34.834;2023-11-21T10:34:16;101233.22;;;24.13;48.26
75938;BME280;64615;32.062;34.834;2023-11-21T10:36:42;101235.94;;;24.13;48.40
75938;BME280;64615;32.062;34.834;2023-11-21T10:39:08;101240.06;;;24.16;47.95
75938;BME280;64615;32.062;34.834;2023-11-21T10:41:35;101230.25;;;24.15;48.02
75938;BME280;64615;32.062;34.834;2023-11-21T10:44:04;101228.59;;;24.14;48.08
75938;BME280;64615;32.062;34.834;2023-11-21T10:46:31;101232.72;;;24.16;48.35
75938;BME280;64615;32.062;34.834;2023-11-21T10:48:57;101229.19;;;24.16;48.20
75938;BME280;64615;32.062;34.834;2023-11-21T10:51:23;101230.84;;;24.17;48.30
75938;BME280;64615;32.062;34.834;2023-11-21T10:53:52;101227.28;;;24.16;48.21
75938;BME280;64615;32.062;34.834;2023-11-21T10:56:18;101223.53;;;24.17;48.42
75938;BME280;64615;32.062;34.834;2023-11-21T10:58:48;101217.22;;;24.17;48.24
75938;BME280;64615;32.062;34.834;2023-11-21T11:01:16;101215.56;;;24.16;48.28
75938;BME280;64615;32.062;34.834;2023-11-21T11:03:43;101212.84;;;24.16;48.58
75938;BME280;64615;32.062;34.834;2023-11-21T11:06:09;101212.03;;;24.15;48.31
75938;BME280;64615;32.062;34.834;2023-11-21T11:08:40;101211.22;;;24.15;48.21
75938;BME280;64615;32.062;34.834;2023-11-21T11:11:06;101201.41;;;24.14;48.35
75938;BME280;64615;32.062;34.834;2023-11-21T11:13:32;101201.69;;;24.12;48.17
75938;BME280;64615;32.062;34.834;2023-11-21T11:15:59;101206.84;;;24.14;48.10
75938;BME280;64615;32.062;34.834;2023-11-21T11:18:26;101208.75;;;24.13;48.56
75938;BME280;64615;32.062;34.834;2023-11-21T11:20:52;101202.50;;;24.13;48.22
75938;BME280;64615;32.062;34.834;2023-11-21T11:31:58;101195.41;;;24.12;48.31
75938;BME280;64615;32.062;34.834;2023-11-21T11:36:48;101194.34;;;24.13;48.49
75938;BME280;64615;32.062;34.834;2023-11-21T11:39:28;101199.78;;;24.13;48.46
75938;BME280;64615;32.062;34.834;2023-11-21T11:41:56;101204.69;;;24.16;48.47
75938;BME280;64615;32.062;34.834;2023-11-21T11:44:53;101214.50;;;24.17;48.34
75938;BME280;64615;32.062;34.834;2023-11-21T11:50:04;101210.75;;;24.18;48.31
75938;BME280;64615;32.062;34.834;2023-11-21T11:55:00;101217.22;;;24.17;48.02
75938;BME280;64615;32.062;34.834;2023-11-21T11:57:30;101211.78;;;24.17;48.43
75938;BME280;64615;32.062;34.834;2023-11-21T12:00:22;101212.03;;;24.15;48.08
75938;BME280;64615;32.062;34.834;2023-11-21T12:03:00;101211.22;;;24.15;48.24
75938;BME280;64615;32.062;34.834;2023-11-21T12:05:30;101217.47;;;24.15;48.16
75938;BME280;64615;32.062;34.834;2023-11-21T12:07:59;101210.38;;;24.14;47.82
75938;BME280;64615;32.062;34.834;2023-11-21T12:10:28;101216.09;;;24.13;48.28
75938;BME280;64615;32.062;34.834;2023-11-21T12:12:58;101228.59;;;24.14;48.06
75938;BME280;64615;32.062;34.834;2023-11-21T12:15:24;101227.00;;;24.13;47.90
75938;BME280;64615;32.062;34.834;2023-11-21T12:17:52;101227.00;;;24.13;47.92
75938;BME280;64615;32.062;34.834;2023-11-21T12:20:19;101218.81;;;24.13;47.95
75938;BME280;64615;32.062;34.834;2023-11-21T12:22:52;101227.00;;;24.13;47.91
75938;BME280;64615;32.062;34.834;2023-11-21T12:25:19;101224.25;;;24.13;48.01
75938;BME280;64615;32.062;34.834;2023-11-21T12:27:50;101226.16;;;24.12;48.28
75938;BME280;64615;32.062;34.834;2023-11-21T12:30:18;101231.59;;;24.12;48.31
75938;BME280;64615;32.062;34.834;2023-11-21T12:32:47;101233.50;;;24.12;48.37
75938;BME280;64615;32.062;34.834;2023-11-21T12:35:13;101233.50;;;24.12;47.86
75938;BME280;64615;32.062;34.834;2023-11-21T12:37:39;101230.78;;;24.12;48.14
75938;BME280;64615;32.062;34.834;2023-11-21T12:40:06;101233.75;;;24.10;48.16
75938;BME280;64615;32.062;34.834;2023-11-21T12:42:45;101231.03;;;24.10;48.36
75938;BME280;64615;32.062;34.834;2023-11-21T12:47:43;101223.94;;;24.09;48.12
75938;BME280;64615;32.062;34.834;2023-11-21T12:50:10;101234.00;;;24.08;48.12
75938;BME280;64615;32.062;34.834;2023-11-21T12:52:45;101226.91;;;24.07;47.96
75938;BME280;64615;32.062;34.834;2023-11-21T12:55:18;101235.63;;;24.10;47.96
75938;BME280;64615;32.062;34.834;2023-11-21T12:57:48;101231.03;;;24.10;47.97